Time;durP1;ratioP1;P1;durP2;ratioP2;P2;SDS_P1;SDS_P2;PMS_P1;PMS_P2;Temp;Humidity;BMP_temperature;BMP_pressure;BME280_temperature;BME280_humidity;BME280_pressure;Samples;Min_cycle;Max_cycle;Signal;HPM_P1;HPM_P2
2023/11/14 00:02:07;;;;;;;1.02;0.50;;;;;;;;;;5039239;28;21406;-82
2023/11/14 00:04:33;;;;;;;1.20;0.50;;;;;;;;;;5035790;28;20943;-82
2023/11/14 00:07:02;;;;;;;1.60;0.63;;;;;;;;;;5041224;28;20379;-83
2023/11/14 00:09:28;;;;;;;1.05;0.50;;;;;;;;;;5037672;28;20387;-82
2023/11/14 00:11:54;;;;;;;1.10;0.60;;;;;;;;;;5023428;28;20394;-82
2023/11/14 00:14:21;;;;;;;1.45;0.70;;;;;;;;;;5041112;28;20395;-83
2023/11/14 00:16:47;;;;;;;1.60;0.60;;;;;;;;;;5040011;28;20391;-82
2023/11/14 00:19:13;;;;;;;0.57;0.50;;;;;;;;;;5040188;28;20427;-82
2023/11/14 00:21:39;;;;;;;0.97;0.53;;;;;;;;;;5041212;28;20411;-83
2023/11/14 00:24:05;;;;;;;2.25;0.63;;;;;;;;;;5040449;28;20840;-82
2023/11/14 00:26:31;;;;;;;0.70;0.40;;;;;;;;;;5039549;28;20398;-82
2023/11/14 00:28:58;;;;;;;2.08;0.77;;;;;;;;;;5039707;28;20391;-83
2023/11/14 00:31:24;;;;;;;1.10;0.52;;;;;;;;;;5040762;28;20402;-83
2023/11/14 00:33:50;;;;;;;0.90;0.60;;;;;;;;;;5032109;28;20585;-82
2023/11/14 00:36:16;;;;;;;2.20;0.50;;;;;;;;;;5040768;28;20452;-82
2023/11/14 00:38:42;;;;;;;0.88;0.40;;;;;;;;;;5040137;28;20908;-82
2023/11/14 00:41:09;;;;;;;0.80;0.40;;;;;;;;;;5040684;28;20494;-82
2023/11/14 00:43:35;;;;;;;0.30;0.30;;;;;;;;;;5040712;28;20391;-81
2023/11/14 00:46:01;;;;;;;1.30;0.40;;;;;;;;;;5040839;28;20393;-82
2023/11/14 00:48:27;;;;;;;2.80;0.40;;;;;;;;;;5039848;28;20861;-82
2023/11/14 00:50:54;;;;;;;0.50;0.40;;;;;;;;;;5042354;28;20391;-81
2023/11/14 00:53:21;;;;;;;0.35;0.35;;;;;;;;;;5042619;28;20823;-81
2023/11/14 00:55:47;;;;;;;1.00;0.55;;;;;;;;;;5043178;28;20841;-81
2023/11/14 00:58:13;;;;;;;0.30;0.30;;;;;;;;;;5040817;28;20429;-82
2023/11/14 01:00:39;;;;;;;1.00;0.50;;;;;;;;;;5042049;28;20391;-82
2023/11/14 01:03:05;;;;;;;1.20;0.53;;;;;;;;;;5042152;28;20391;-82
2023/11/14 01:05:31;;;;;;;0.93;0.38;;;;;;;;;;5034236;28;20383;-82
2023/11/14 01:07:57;;;;;;;0.73;0.40;;;;;;;;;;5040013;28;20453;-81
2023/11/14 01:10:23;;;;;;;1.52;0.50;;;;;;;;;;5040127;28;20395;-81
2023/11/14 01:12:49;;;;;;;0.93;0.63;;;;;;;;;;5040554;28;20387;-80
2023/11/14 01:15:16;;;;;;;0.80;0.50;;;;;;;;;;5022906;28;20394;-81
2023/11/14 01:17:42;;;;;;;0.77;0.50;;;;;;;;;;5039888;28;20449;-81
2023/11/14 01:20:11;;;;;;;0.85;0.50;;;;;;;;;;5021514;28;20406;-80
2023/11/14 01:22:37;;;;;;;0.70;0.47;;;;;;;;;;5037209;28;20761;-81
2023/11/14 01:25:04;;;;;;;0.98;0.50;;;;;;;;;;5038825;28;20427;-81
2023/11/14 01:27:30;;;;;;;0.40;0.30;;;;;;;;;;5037472;28;20411;-81
2023/11/14 01:29:56;;;;;;;0.70;0.30;;;;;;;;;;5041055;28;20379;-81
2023/11/14 01:32:22;;;;;;;0.63;0.30;;;;;;;;;;5040236;28;20849;-81
2023/11/14 01:34:48;;;;;;;0.40;0.30;;;;;;;;;;5040695;28;20411;-82
2023/11/14 01:37:14;;;;;;;0.60;0.22;;;;;;;;;;5039879;28;20415;-81
2023/11/14 01:39:44;;;;;;;0.30;0.28;;;;;;;;;;5040455;28;20415;-81
2023/11/14 01:42:11;;;;;;;0.25;0.25;;;;;;;;;;5040597;28;20445;-81
2023/11/14 01:44:36;;;;;;;0.80;0.38;;;;;;;;;;5041256;28;20398;-81
2023/11/14 01:47:03;;;;;;;0.40;0.20;;;;;;;;;;5039664;28;20376;-81
2023/11/14 01:49:29;;;;;;;0.40;0.20;;;;;;;;;;5040487;28;20398;-82
2023/11/14 01:51:56;;;;;;;0.30;0.30;;;;;;;;;;5040381;28;20386;-82
2023/11/14 01:54:22;;;;;;;0.40;0.13;;;;;;;;;;5039889;28;20393;-83
2023/11/14 01:56:49;;;;;;;0.63;0.20;;;;;;;;;;5040764;28;20389;-83
2023/11/14 01:59:15;;;;;;;0.50;0.20;;;;;;;;;;5041400;28;20442;-83
2023/11/14 02:01:42;;;;;;;0.47;0.20;;;;;;;;;;5038375;28;20925;-82
2023/11/14 02:04:12;;;;;;;0.30;0.17;;;;;;;;;;5040857;28;20398;-82
2023/11/14 02:06:38;;;;;;;0.25;0.10;;;;;;;;;;5039293;28;20740;-82
2023/11/14 02:09:07;;;;;;;0.60;0.20;;;;;;;;;;5038447;28;20861;-82
2023/11/14 02:11:34;;;;;;;0.35;0.15;;;;;;;;;;5038625;28;20844;-82
2023/11/14 02:14:00;;;;;;;1.02;0.20;;;;;;;;;;5039036;28;20383;-82
2023/11/14 02:16:27;;;;;;;0.52;0.20;;;;;;;;;;5037792;28;20737;-82
2023/11/14 02:18:53;;;;;;;1.02;0.22;;;;;;;;;;5039436;28;20419;-82
2023/11/14 02:21:20;;;;;;;0.32;0.15;;;;;;;;;;5035792;28;20371;-81
2023/11/14 02:23:49;;;;;;;0.40;0.15;;;;;;;;;;5020625;28;20387;-83
2023/11/14 02:26:15;;;;;;;0.20;0.10;;;;;;;;;;5038402;28;20474;-80
2023/11/14 02:28:41;;;;;;;0.80;0.20;;;;;;;;;;5038745;28;20383;-81
2023/11/14 02:31:07;;;;;;;0.60;0.20;;;;;;;;;;5037633;28;20406;-81
2023/11/14 02:33:37;;;;;;;0.50;0.10;;;;;;;;;;5038074;28;20476;-80
2023/11/14 02:36:04;;;;;;;0.20;0.10;;;;;;;;;;5032025;28;20841;-81
2023/11/14 02:38:30;;;;;;;0.60;0.20;;;;;;;;;;5038342;28;20502;-82
2023/11/14 02:40:56;;;;;;;0.55;0.20;;;;;;;;;;5038477;28;20379;-81
2023/11/14 02:43:22;;;;;;;0.35;0.20;;;;;;;;;;5038481;28;20395;-81
2023/11/14 02:45:48;;;;;;;0.25;0.10;;;;;;;;;;5038288;28;20461;-82
2023/11/14 02:48:14;;;;;;;1.00;0.20;;;;;;;;;;5038706;28;20413;-82
2023/11/14 02:50:53;;;;;;;0.25;0.10;;;;;;;;;;5038418;28;20394;-81
2023/11/14 02:53:20;;;;;;;0.20;0.20;;;;;;;;;;5038093;28;20844;-81
2023/11/14 02:55:47;;;;;;;0.30;0.30;;;;;;;;;;5038163;28;20383;-80
2023/11/14 02:58:13;;;;;;;0.53;0.10;;;;;;;;;;5037849;28;20747;-81
2023/11/14 03:00:41;;;;;;;0.22;0.10;;;;;;;;;;5026640;28;20409;-81
2023/11/14 03:03:08;;;;;;;0.95;0.10;;;;;;;;;;5038322;28;20387;-80
2023/11/14 03:05:35;;;;;;;0.08;0.03;;;;;;;;;;5037481;28;20379;-82
2023/11/14 03:08:01;;;;;;;0.40;0.08;;;;;;;;;;5037859;28;20379;-82
2023/11/14 03:10:27;;;;;;;0.40;0.10;;;;;;;;;;5038507;28;20932;-81
2023/11/14 03:12:54;;;;;;;0.57;0.10;;;;;;;;;;5037606;28;20386;-81
2023/11/14 03:15:20;;;;;;;3.50;0.10;;;;;;;;;;5038356;28;20414;-81
2023/11/14 03:17:46;;;;;;;0.10;0.00;;;;;;;;;;5038280;28;20425;-81
2023/11/14 03:20:12;;;;;;;0.80;0.20;;;;;;;;;;5038265;28;20415;-81
2023/11/14 03:22:38;;;;;;;0.20;0.20;;;;;;;;;;5037883;28;20379;-80
2023/11/14 03:25:04;;;;;;;0.25;0.10;;;;;;;;;;5017985;28;20749;-81
2023/11/14 03:27:30;;;;;;;0.52;0.00;;;;;;;;;;5037780;28;20838;-81
2023/11/14 03:29:56;;;;;;;0.10;0.10;;;;;;;;;;5038749;28;20440;-82
2023/11/14 03:32:22;;;;;;;0.10;0.00;;;;;;;;;;5039828;28;20734;-82
2023/11/14 03:34:48;;;;;;;0.50;0.00;;;;;;;;;;5039159;28;20414;-82
2023/11/14 03:37:14;;;;;;;0.40;0.10;;;;;;;;;;5038412;28;20383;-81
2023/11/14 03:39:41;;;;;;;0.10;0.00;;;;;;;;;;5038267;28;20423;-82
2023/11/14 03:42:07;;;;;;;0.30;0.00;;;;;;;;;;5039366;28;20398;-81
2023/11/14 03:44:33;;;;;;;0.28;0.10;;;;;;;;;;5039530;28;20394;-81
2023/11/14 03:46:59;;;;;;;0.10;0.00;;;;;;;;;;5038885;28;20383;-81
2023/11/14 03:49:25;;;;;;;1.20;0.10;;;;;;;;;;5038995;28;20977;-82
2023/11/14 03:51:51;;;;;;;0.20;0.00;;;;;;;;;;5039588;28;20446;-83
2023/11/14 03:54:17;;;;;;;0.30;0.20;;;;;;;;;;5039989;28;20394;-82
2023/11/14 03:56:43;;;;;;;0.10;0.10;;;;;;;;;;5039472;28;20398;-81
2023/11/14 03:59:09;;;;;;;0.30;0.10;;;;;;;;;;5039995;28;20858;-81
2023/11/14 04:01:37;;;;;;;0.30;0.20;;;;;;;;;;5040525;28;20415;-82
2023/11/14 04:04:02;;;;;;;0.30;0.20;;;;;;;;;;5040660;28;20402;-82
2023/11/14 04:06:28;;;;;;;0.30;0.10;;;;;;;;;;5039676;28;20385;-83
2023/11/14 04:08:54;;;;;;;1.20;0.20;;;;;;;;;;5040031;28;20737;-83
2023/11/14 04:11:20;;;;;;;0.40;0.20;;;;;;;;;;5040463;28;20391;-82
2023/11/14 04:13:47;;;;;;;0.80;0.20;;;;;;;;;;5040954;28;20830;-83
2023/11/14 04:16:13;;;;;;;0.00;0.00;;;;;;;;;;5040474;28;20397;-82
2023/11/14 04:18:40;;;;;;;0.13;0.10;;;;;;;;;;5041408;28;20415;-83
2023/11/14 04:21:06;;;;;;;0.35;0.10;;;;;;;;;;5040767;28;20384;-82
2023/11/14 04:23:34;;;;;;;0.43;0.20;;;;;;;;;;5040714;28;20387;-85
2023/11/14 04:26:00;;;;;;;1.50;0.10;;;;;;;;;;5046779;28;20391;-83
2023/11/14 04:28:26;;;;;;;0.30;0.13;;;;;;;;;;5045418;28;20906;-83
2023/11/14 04:30:56;;;;;;;0.55;0.25;;;;;;;;;;5044308;28;20474;-82
2023/11/14 04:33:23;;;;;;;0.88;0.20;;;;;;;;;;5043653;28;20393;-82
2023/11/14 04:35:49;;;;;;;0.13;0.10;;;;;;;;;;5044111;28;20419;-83
2023/11/14 04:38:15;;;;;;;0.20;0.20;;;;;;;;;;5043067;28;20912;-83
2023/11/14 04:40:41;;;;;;;0.40;0.30;;;;;;;;;;5027119;28;20788;-83
2023/11/14 04:43:07;;;;;;;0.40;0.20;;;;;;;;;;5043508;28;20440;-82
2023/11/14 04:45:33;;;;;;;0.20;0.20;;;;;;;;;;5042906;28;20387;-82
2023/11/14 04:47:59;;;;;;;0.40;0.20;;;;;;;;;;5028639;28;20867;-82
2023/11/14 04:50:25;;;;;;;0.65;0.22;;;;;;;;;;5042613;28;20390;-82
2023/11/14 04:52:51;;;;;;;0.73;0.20;;;;;;;;;;5042384;28;20387;-82
2023/11/14 04:55:17;;;;;;;0.82;0.40;;;;;;;;;;5044103;28;20398;-82
2023/11/14 04:57:43;;;;;;;0.40;0.10;;;;;;;;;;5042663;28;20442;-82
2023/11/14 05:00:09;;;;;;;0.32;0.10;;;;;;;;;;5042402;28;20384;-82
2023/11/14 05:02:36;;;;;;;0.80;0.20;;;;;;;;;;5042780;28;20902;-82
2023/11/14 05:05:02;;;;;;;0.20;0.10;;;;;;;;;;5043276;28;20451;-82
2023/11/14 05:07:27;;;;;;;0.50;0.10;;;;;;;;;;5043334;28;20832;-82
2023/11/14 05:09:54;;;;;;;0.60;0.30;;;;;;;;;;5043436;28;20383;-81
2023/11/14 05:12:20;;;;;;;0.40;0.20;;;;;;;;;;5043050;28;20383;-83
2023/11/14 05:14:46;;;;;;;0.43;0.23;;;;;;;;;;5042878;28;20379;-82
2023/11/14 05:17:12;;;;;;;0.40;0.30;;;;;;;;;;5025305;28;20393;-82
2023/11/14 05:19:38;;;;;;;0.90;0.40;;;;;;;;;;5041900;28;20383;-81
2023/11/14 05:22:04;;;;;;;0.30;0.30;;;;;;;;;;5041548;28;20402;-82
2023/11/14 05:24:30;;;;;;;0.70;0.30;;;;;;;;;;5041073;28;20391;-82
2023/11/14 05:26:56;;;;;;;0.63;0.30;;;;;;;;;;5040475;28;20817;-82
2023/11/14 05:29:22;;;;;;;0.80;0.22;;;;;;;;;;5041313;28;20399;-82
2023/11/14 05:31:47;;;;;;;0.20;0.20;;;;;;;;;;5023482;28;20406;-81
2023/11/14 05:34:14;;;;;;;0.30;0.30;;;;;;;;;;5041587;28;20394;-81
2023/11/14 05:36:40;;;;;;;0.80;0.45;;;;;;;;;;5040643;28;20380;-81
2023/11/14 05:39:07;;;;;;;1.92;0.60;;;;;;;;;;5041183;28;20441;-81
2023/11/14 05:41:35;;;;;;;0.68;0.43;;;;;;;;;;5041122;28;20379;-82
2023/11/14 05:44:01;;;;;;;0.93;0.50;;;;;;;;;;5040657;28;20440;-81
2023/11/14 05:46:27;;;;;;;1.52;0.30;;;;;;;;;;5040600;28;20395;-81
2023/11/14 05:48:53;;;;;;;0.60;0.40;;;;;;;;;;5039921;28;20398;-81
2023/11/14 05:51:19;;;;;;;0.65;0.40;;;;;;;;;;5039243;28;20473;-80
2023/11/14 05:53:45;;;;;;;0.80;0.37;;;;;;;;;;5020128;28;20466;-81
2023/11/14 05:56:11;;;;;;;0.40;0.40;;;;;;;;;;5042320;28;20388;-82
2023/11/14 05:58:37;;;;;;;1.35;0.43;;;;;;;;;;5039500;28;20482;-81
2023/11/14 06:01:03;;;;;;;0.77;0.50;;;;;;;;;;5042441;28;20447;-81
2023/11/14 06:03:29;;;;;;;0.60;0.40;;;;;;;;;;5042975;28;20387;-82
2023/11/14 06:05:55;;;;;;;1.52;0.32;;;;;;;;;;5024676;28;20399;-81
2023/11/14 06:08:21;;;;;;;1.15;0.40;;;;;;;;;;5043478;28;20463;-82
2023/11/14 06:10:47;;;;;;;1.33;0.40;;;;;;;;;;5043801;28;20407;-82
2023/11/14 06:13:14;;;;;;;1.70;0.50;;;;;;;;;;5042583;28;20437;-82
2023/11/14 06:15:40;;;;;;;0.52;0.32;;;;;;;;;;5042408;28;20391;-83
2023/11/14 06:18:06;;;;;;;1.98;0.60;;;;;;;;;;5024934;28;20970;-82
2023/11/14 06:20:34;;;;;;;1.00;0.30;;;;;;;;;;5044005;28;20382;-83
2023/11/14 06:23:00;;;;;;;0.93;0.60;;;;;;;;;;5042140;28;20387;-82
2023/11/14 06:25:27;;;;;;;0.98;0.50;;;;;;;;;;5042609;28;20387;-84
2023/11/14 06:27:53;;;;;;;1.23;0.50;;;;;;;;;;5044072;28;20379;-83
2023/11/14 06:30:22;;;;;;;1.05;0.50;;;;;;;;;;5045199;28;20379;-81
2023/11/14 06:32:48;;;;;;;1.20;0.52;;;;;;;;;;5041020;28;20422;-83
2023/11/14 06:35:14;;;;;;;1.25;0.47;;;;;;;;;;5027828;28;20422;-85
2023/11/14 06:37:42;;;;;;;2.33;0.50;;;;;;;;;;5045029;28;20450;-82
2023/11/14 06:40:11;;;;;;;1.40;0.50;;;;;;;;;;5026997;28;20800;-84
2023/11/14 06:42:40;;;;;;;0.83;0.70;;;;;;;;;;5045056;28;20449;-82
2023/11/14 06:45:07;;;;;;;3.78;1.00;;;;;;;;;;5044735;28;20478;-84
2023/11/14 06:47:33;;;;;;;1.80;0.60;;;;;;;;;;5043910;28;20383;-85
2023/11/14 06:49:59;;;;;;;1.00;0.60;;;;;;;;;;5044759;28;20383;-83
2023/11/14 06:52:25;;;;;;;1.37;0.77;;;;;;;;;;5043966;28;20411;-83
2023/11/14 06:54:51;;;;;;;0.77;0.52;;;;;;;;;;5044144;28;20837;-82
2023/11/14 06:57:17;;;;;;;1.30;0.60;;;;;;;;;;5045126;28;20753;-83
2023/11/14 06:59:43;;;;;;;2.55;0.63;;;;;;;;;;5044515;28;20497;-84
2023/11/14 07:02:09;;;;;;;2.38;0.80;;;;;;;;;;5044285;28;20454;-83
2023/11/14 07:04:37;;;;;;;3.67;0.68;;;;;;;;;;5044931;28;20389;-83
2023/11/14 07:07:04;;;;;;;2.10;0.60;;;;;;;;;;5026293;28;20501;-82
2023/11/14 07:09:30;;;;;;;1.30;0.60;;;;;;;;;;5025561;28;20467;-83
2023/11/14 07:11:56;;;;;;;1.38;0.63;;;;;;;;;;5044749;28;20414;-83
2023/11/14 07:14:24;;;;;;;2.47;0.73;;;;;;;;;;5026281;28;20395;-83
2023/11/14 07:16:50;;;;;;;1.92;0.80;;;;;;;;;;5045122;28;20414;-83
2023/11/14 07:19:16;;;;;;;2.83;0.77;;;;;;;;;;5045198;28;20444;-83
2023/11/14 07:21:45;;;;;;;1.73;0.77;;;;;;;;;;5026600;28;20418;-83
2023/11/14 07:24:11;;;;;;;0.75;0.50;;;;;;;;;;5038532;28;20389;-83
2023/11/14 07:26:38;;;;;;;1.53;0.60;;;;;;;;;;5036826;28;20390;-83
2023/11/14 07:29:04;;;;;;;1.80;0.80;;;;;;;;;;5043617;28;20382;-84
2023/11/14 07:31:31;;;;;;;2.60;0.60;;;;;;;;;;5043715;28;20433;-85
2023/11/14 07:33:57;;;;;;;2.28;0.80;;;;;;;;;;5024725;28;21041;-84
2023/11/14 07:36:24;;;;;;;2.03;0.70;;;;;;;;;;5043116;28;20387;-84
2023/11/14 07:38:51;;;;;;;1.60;0.80;;;;;;;;;;5042970;28;20414;-82
2023/11/14 07:41:17;;;;;;;2.30;0.80;;;;;;;;;;5042940;28;20402;-86
2023/11/14 07:43:43;;;;;;;2.05;0.73;;;;;;;;;;5025022;28;20460;-83
2023/11/14 07:46:09;;;;;;;2.28;0.80;;;;;;;;;;5043295;28;20387;-83
2023/11/14 07:48:35;;;;;;;2.13;0.80;;;;;;;;;;5043079;28;20375;-83
2023/11/14 07:51:02;;;;;;;2.85;0.98;;;;;;;;;;5042375;28;20799;-83
2023/11/14 07:53:28;;;;;;;2.50;0.85;;;;;;;;;;5043481;28;20383;-83
2023/11/14 07:55:55;;;;;;;2.15;0.65;;;;;;;;;;5041905;28;20850;-83
2023/11/14 07:58:23;;;;;;;2.33;1.00;;;;;;;;;;5043620;28;20880;-82
2023/11/14 08:00:49;;;;;;;3.35;0.90;;;;;;;;;;5027436;28;20422;-83
2023/11/14 08:03:16;;;;;;;2.88;0.70;;;;;;;;;;5045299;28;20479;-83
2023/11/14 08:05:42;;;;;;;2.50;0.70;;;;;;;;;;5046453;28;20774;-83
2023/11/14 08:08:17;;;;;;;2.08;0.60;;;;;;;;;;5027635;28;20458;-84
2023/11/14 08:10:43;;;;;;;2.63;0.82;;;;;;;;;;5046164;28;20923;-83
2023/11/14 08:13:09;;;;;;;3.03;0.80;;;;;;;;;;5046453;28;21040;-83
2023/11/14 08:15:35;;;;;;;1.60;0.80;;;;;;;;;;5026373;28;20398;-84
2023/11/14 08:18:01;;;;;;;3.00;0.82;;;;;;;;;;5045301;28;20769;-83
2023/11/14 08:20:28;;;;;;;2.63;0.73;;;;;;;;;;5045051;28;20864;-84
2023/11/14 08:22:54;;;;;;;1.70;0.60;;;;;;;;;;5043537;28;20461;-83
2023/11/14 08:25:20;;;;;;;4.05;0.85;;;;;;;;;;5043391;28;20390;-83
2023/11/14 08:27:49;;;;;;;1.08;0.60;;;;;;;;;;5043914;28;20464;-83
2023/11/14 08:30:15;;;;;;;2.58;0.63;;;;;;;;;;5025766;28;20876;-83
2023/11/14 08:32:42;;;;;;;2.97;0.73;;;;;;;;;;5042068;28;20382;-83
2023/11/14 08:35:09;;;;;;;1.77;0.70;;;;;;;;;;5043580;28;20397;-82
2023/11/14 08:37:35;;;;;;;2.25;0.60;;;;;;;;;;5041925;28;20407;-83
2023/11/14 08:40:01;;;;;;;3.35;0.70;;;;;;;;;;5042080;28;20407;-83
2023/11/14 08:42:27;;;;;;;2.25;0.60;;;;;;;;;;5043919;28;20464;-83
2023/11/14 08:44:53;;;;;;;3.72;0.75;;;;;;;;;;5044238;28;20402;-83
2023/11/14 08:47:19;;;;;;;2.40;0.98;;;;;;;;;;5043698;28;20382;-83
2023/11/14 08:49:45;;;;;;;1.48;0.50;;;;;;;;;;5026038;28;20928;-83
2023/11/14 08:52:12;;;;;;;1.67;0.60;;;;;;;;;;5032863;28;20525;-84
2023/11/14 08:54:38;;;;;;;3.07;0.63;;;;;;;;;;5044611;28;20478;-84
2023/11/14 08:57:04;;;;;;;1.38;0.63;;;;;;;;;;5045579;28;20384;-84
2023/11/14 08:59:30;;;;;;;1.42;0.65;;;;;;;;;;5043605;28;20410;-83
2023/11/14 09:01:57;;;;;;;2.70;0.60;;;;;;;;;;5026244;28;20400;-83
2023/11/14 09:04:23;;;;;;;1.10;0.50;;;;;;;;;;5044022;28;20457;-84
2023/11/14 09:06:49;;;;;;;1.00;0.50;;;;;;;;;;5042671;28;20486;-83
2023/11/14 09:09:15;;;;;;;1.85;0.52;;;;;;;;;;5044050;28;20402;-83
2023/11/14 09:11:41;;;;;;;2.92;0.73;;;;;;;;;;5038668;28;20383;-82
2023/11/14 09:14:08;;;;;;;1.45;0.60;;;;;;;;;;5018257;28;20385;-83
2023/11/14 09:16:34;;;;;;;1.30;0.60;;;;;;;;;;5036116;28;20389;-83
2023/11/14 09:19:00;;;;;;;1.93;0.80;;;;;;;;;;5036416;28;20414;-83
2023/11/14 09:21:29;;;;;;;1.38;0.57;;;;;;;;;;5019348;28;20481;-83
2023/11/14 09:23:56;;;;;;;2.55;0.82;;;;;;;;;;5038121;28;20437;-83
2023/11/14 09:26:24;;;;;;;1.50;0.60;;;;;;;;;;5039043;28;20461;-84
2023/11/14 09:28:50;;;;;;;1.17;0.60;;;;;;;;;;5040035;28;20379;-84
2023/11/14 09:31:16;;;;;;;2.47;0.70;;;;;;;;;;5022365;28;20395;-84
2023/11/14 09:33:42;;;;;;;1.15;0.60;;;;;;;;;;5040224;28;20388;-84
2023/11/14 09:36:09;;;;;;;3.70;0.80;;;;;;;;;;5040291;28;20392;-84
2023/11/14 09:38:35;;;;;;;2.05;0.70;;;;;;;;;;5040614;28;20442;-84
2023/11/14 09:41:02;;;;;;;1.17;0.63;;;;;;;;;;5041086;28;20394;-84
2023/11/14 09:43:29;;;;;;;1.58;0.80;;;;;;;;;;5040820;28;20394;-84
2023/11/14 09:45:58;;;;;;;1.90;0.70;;;;;;;;;;5041131;28;20375;-86
2023/11/14 09:48:24;;;;;;;1.85;0.68;;;;;;;;;;5024657;28;20455;-84
2023/11/14 09:50:50;;;;;;;1.90;0.70;;;;;;;;;;5040172;28;20415;-85
2023/11/14 09:53:19;;;;;;;1.45;0.75;;;;;;;;;;5045070;28;20376;-85
2023/11/14 09:55:45;;;;;;;1.40;0.60;;;;;;;;;;5028289;28;20414;-84
2023/11/14 09:58:12;;;;;;;1.10;0.60;;;;;;;;;;5044418;28;20487;-84
2023/11/14 10:00:38;;;;;;;2.22;0.60;;;;;;;;;;5045200;28;20399;-84
2023/11/14 10:03:04;;;;;;;1.17;0.45;;;;;;;;;;5029977;28;20375;-84
2023/11/14 10:05:31;;;;;;;1.40;0.60;;;;;;;;;;5043935;28;20790;-84
2023/11/14 10:07:57;;;;;;;1.23;0.52;;;;;;;;;;5025486;28;20395;-86
2023/11/14 10:10:24;;;;;;;1.20;0.60;;;;;;;;;;5044270;28;20391;-86
2023/11/14 10:12:55;;;;;;;1.75;0.60;;;;;;;;;;5043945;28;20411;-84
2023/11/14 10:15:31;;;;;;;1.35;0.50;;;;;;;;;;5044959;28;20441;-86
2023/11/14 10:17:57;;;;;;;1.90;0.80;;;;;;;;;;5025700;28;20451;-86
2023/11/14 10:20:24;;;;;;;1.40;0.80;;;;;;;;;;5025119;28;20885;-86
2023/11/14 10:22:54;;;;;;;1.38;0.65;;;;;;;;;;5042517;28;20395;-85
2023/11/14 10:25:25;;;;;;;1.47;0.77;;;;;;;;;;5043968;28;20391;-85
2023/11/14 10:27:59;;;;;;;2.13;0.73;;;;;;;;;;5045375;28;20406;-85
2023/11/14 10:30:46;;;;;;;0.75;0.60;;;;;;;;;;5043806;28;20390;-85
2023/11/14 10:33:12;;;;;;;1.90;0.70;;;;;;;;;;5005971;28;20393;-85
2023/11/14 10:35:40;;;;;;;1.05;0.60;;;;;;;;;;5040954;28;20383;-85
2023/11/14 10:38:20;;;;;;;1.05;0.50;;;;;;;;;;5043061;28;20407;-85
2023/11/14 10:40:53;;;;;;;1.67;0.55;;;;;;;;;;5042448;28;20783;-85
2023/11/14 10:43:26;;;;;;;1.75;0.55;;;;;;;;;;5025426;28;20841;-85
2023/11/14 10:45:53;;;;;;;1.30;0.50;;;;;;;;;;5042669;28;20486;-85
2023/11/14 10:48:26;;;;;;;1.45;0.52;;;;;;;;;;5040623;28;20383;-85
2023/11/14 10:50:52;;;;;;;1.52;0.50;;;;;;;;;;5039308;28;20911;-84
2023/11/14 10:53:18;;;;;;;2.10;0.83;;;;;;;;;;5039598;28;20421;-84
2023/11/14 10:55:46;;;;;;;1.10;0.90;;;;;;;;;;5039500;28;20733;-85
2023/11/14 10:58:12;;;;;;;2.50;0.70;;;;;;;;;;5043364;28;20426;-85
2023/11/14 11:00:39;;;;;;;1.60;0.70;;;;;;;;;;5040850;28;20402;-84
2023/11/14 11:03:05;;;;;;;1.40;0.73;;;;;;;;;;5041634;28;20411;-85
2023/11/14 11:05:32;;;;;;;0.93;0.60;;;;;;;;;;5041644;28;20446;-85
2023/11/14 11:07:59;;;;;;;0.90;0.50;;;;;;;;;;5043012;28;20433;-85
2023/11/14 11:10:26;;;;;;;1.70;0.50;;;;;;;;;;5025599;28;20414;-85
2023/11/14 11:12:52;;;;;;;0.68;0.40;;;;;;;;;;5040784;28;20394;-85
2023/11/14 11:15:18;;;;;;;1.70;0.50;;;;;;;;;;5042838;28;20387;-85
2023/11/14 11:17:45;;;;;;;1.20;0.57;;;;;;;;;;5021382;28;20435;-84
2023/11/14 11:20:37;;;;;;;1.55;0.60;;;;;;;;;;5038390;28;20419;-85
2023/11/14 11:23:12;;;;;;;1.60;0.70;;;;;;;;;;5033592;28;20465;-85
2023/11/14 11:25:48;;;;;;;0.95;0.60;;;;;;;;;;5041542;28;20390;-84
2023/11/14 11:28:20;;;;;;;1.70;0.80;;;;;;;;;;5040095;28;20395;-84
2023/11/14 11:31:05;;;;;;;1.42;0.60;;;;;;;;;;5039444;28;20379;-84
2023/11/14 11:33:37;;;;;;;1.50;0.60;;;;;;;;;;5041711;28;20440;-85
2023/11/14 11:36:25;;;;;;;1.80;0.80;;;;;;;;;;5040958;28;20422;-85
2023/11/14 11:39:01;;;;;;;1.08;0.60;;;;;;;;;;5021800;28;20450;-85
2023/11/14 11:41:31;;;;;;;1.67;0.80;;;;;;;;;;5039145;28;20379;-85
2023/11/14 11:44:03;;;;;;;0.60;0.50;;;;;;;;;;5039349;28;20444;-84
2023/11/14 11:46:32;;;;;;;1.58;0.90;;;;;;;;;;5039955;28;20773;-84
2023/11/14 11:49:22;;;;;;;1.02;0.60;;;;;;;;;;5039314;28;20395;-85
2023/11/14 11:51:49;;;;;;;2.17;0.97;;;;;;;;;;5032455;28;20399;-85
2023/11/14 11:54:27;;;;;;;1.70;0.70;;;;;;;;;;5023649;28;20804;-84
2023/11/14 11:57:12;;;;;;;1.95;0.85;;;;;;;;;;5043845;28;20765;-83
2023/11/14 11:59:46;;;;;;;1.63;0.95;;;;;;;;;;5042888;28;20423;-85
2023/11/14 12:02:23;;;;;;;2.60;1.00;;;;;;;;;;5035771;28;20390;-84
2023/11/14 12:04:51;;;;;;;1.27;0.75;;;;;;;;;;5036417;28;20845;-84
2023/11/14 12:07:17;;;;;;;1.02;0.60;;;;;;;;;;5039846;28;20390;-85
2023/11/14 12:09:47;;;;;;;3.75;0.90;;;;;;;;;;5040169;28;20382;-84
2023/11/14 12:12:16;;;;;;;1.30;0.70;;;;;;;;;;5041679;28;20853;-85
2023/11/14 12:14:42;;;;;;;1.65;0.80;;;;;;;;;;5042337;28;20397;-85
2023/11/14 12:17:08;;;;;;;2.67;0.98;;;;;;;;;;5038349;28;20393;-85
2023/11/14 12:19:34;;;;;;;2.20;0.70;;;;;;;;;;5040876;28;20414;-84
2023/11/14 12:22:05;;;;;;;2.33;0.90;;;;;;;;;;5041190;28;20853;-85
2023/11/14 12:24:32;;;;;;;1.75;1.15;;;;;;;;;;5038686;28;20934;-84
2023/11/14 12:26:58;;;;;;;1.05;0.90;;;;;;;;;;5023549;28;20421;-85
2023/11/14 12:29:24;;;;;;;1.58;0.90;;;;;;;;;;5023619;28;20733;-84
2023/11/14 12:31:54;;;;;;;2.05;0.90;;;;;;;;;;5040359;28;20398;-84
2023/11/14 12:34:30;;;;;;;1.70;0.82;;;;;;;;;;5040593;28;20413;-84
2023/11/14 12:37:05;;;;;;;4.77;1.07;;;;;;;;;;5034027;28;20444;-83
2023/11/14 12:39:31;;;;;;;2.53;0.82;;;;;;;;;;5034641;28;20936;-83
2023/11/14 12:41:57;;;;;;;1.90;1.02;;;;;;;;;;5035001;28;20415;-83
2023/11/14 12:44:24;;;;;;;1.38;0.95;;;;;;;;;;5034962;28;20437;-83
2023/11/14 12:46:54;;;;;;;1.92;1.00;;;;;;;;;;5038871;28;20388;-83
2023/11/14 12:49:22;;;;;;;1.90;1.37;;;;;;;;;;5038744;28;20458;-82
2023/11/14 12:51:48;;;;;;;2.30;1.23;;;;;;;;;;5021579;28;20911;-83
2023/11/14 12:54:15;;;;;;;4.07;1.40;;;;;;;;;;5040939;28;20391;-83
2023/11/14 12:56:42;;;;;;;2.25;1.10;;;;;;;;;;5038853;28;20841;-82
2023/11/14 12:59:08;;;;;;;1.90;1.10;;;;;;;;;;5044073;28;20418;-83
2023/11/14 13:01:44;;;;;;;1.48;1.02;;;;;;;;;;5044033;28;20401;-83
2023/11/14 13:04:11;;;;;;;1.63;1.30;;;;;;;;;;5020628;28;20805;-82
2023/11/14 13:06:46;;;;;;;2.95;0.88;;;;;;;;;;5040967;28;20391;-83
2023/11/14 13:09:15;;;;;;;1.63;0.90;;;;;;;;;;5034722;28;20422;-81
2023/11/14 13:11:42;;;;;;;1.02;0.70;;;;;;;;;;5037145;28;20376;-81
2023/11/14 13:14:08;;;;;;;3.90;0.90;;;;;;;;;;5037146;28;20395;-81
2023/11/14 13:16:38;;;;;;;0.85;0.70;;;;;;;;;;5036449;28;20739;-81
2023/11/14 13:19:05;;;;;;;1.55;1.10;;;;;;;;;;5035380;28;20497;-81
2023/11/14 13:21:31;;;;;;;2.47;1.70;;;;;;;;;;5036731;28;20387;-81
2023/11/14 13:23:57;;;;;;;2.22;1.30;;;;;;;;;;5019440;28;20391;-81
2023/11/14 13:26:23;;;;;;;4.33;2.43;;;;;;;;;;5039158;28;20414;-81
2023/11/14 13:28:49;;;;;;;3.90;1.80;;;;;;;;;;5036194;28;20387;-81
2023/11/14 13:31:16;;;;;;;1.98;1.30;;;;;;;;;;5037524;28;20881;-81
2023/11/14 13:33:42;;;;;;;2.37;1.20;;;;;;;;;;5036998;28;20414;-81
2023/11/14 13:36:10;;;;;;;1.17;0.77;;;;;;;;;;5037692;28;20391;-81
2023/11/14 13:38:36;;;;;;;2.30;0.90;;;;;;;;;;5019554;28;20502;-81
2023/11/14 13:41:05;;;;;;;2.00;0.80;;;;;;;;;;5041065;28;20805;-81
2023/11/14 13:43:31;;;;;;;2.63;1.35;;;;;;;;;;5039141;28;20382;-81
2023/11/14 13:45:57;;;;;;;2.28;0.90;;;;;;;;;;5037464;28;20449;-81
2023/11/14 13:48:23;;;;;;;2.78;0.90;;;;;;;;;;5037534;28;20424;-81
2023/11/14 13:50:49;;;;;;;2.13;0.80;;;;;;;;;;5042157;28;20402;-82
2023/11/14 13:53:19;;;;;;;1.45;0.90;;;;;;;;;;5041809;28;20387;-81
2023/11/14 13:55:45;;;;;;;2.45;0.98;;;;;;;;;;5042095;28;20445;-82
2023/11/14 13:58:13;;;;;;;1.98;1.30;;;;;;;;;;5025295;28;20411;-82
2023/11/14 14:00:41;;;;;;;2.33;1.35;;;;;;;;;;5041331;28;20387;-81
2023/11/14 14:03:07;;;;;;;1.42;0.90;;;;;;;;;;5020588;28;20414;-82
2023/11/14 14:05:34;;;;;;;2.38;1.10;;;;;;;;;;5039858;28;20387;-81
2023/11/14 14:08:00;;;;;;;1.50;1.00;;;;;;;;;;5039084;28;20395;-82
2023/11/14 14:10:26;;;;;;;2.05;1.10;;;;;;;;;;5021179;28;20797;-81
2023/11/14 14:12:52;;;;;;;2.42;1.23;;;;;;;;;;5040910;28;20422;-82
2023/11/14 14:15:18;;;;;;;2.25;0.90;;;;;;;;;;5041787;28;20470;-82
2023/11/14 14:17:45;;;;;;;1.60;0.80;;;;;;;;;;5041883;28;20490;-81
2023/11/14 14:20:14;;;;;;;2.50;1.17;;;;;;;;;;5041698;28;20798;-82
2023/11/14 14:22:40;;;;;;;1.77;0.82;;;;;;;;;;5041456;28;20520;-81
2023/11/14 14:25:08;;;;;;;2.40;1.23;;;;;;;;;;5040818;28;20391;-81
2023/11/14 14:27:35;;;;;;;2.25;0.98;;;;;;;;;;5041362;28;20391;-82
2023/11/14 14:30:03;;;;;;;2.75;1.25;;;;;;;;;;5041235;28;20486;-82
2023/11/14 14:32:29;;;;;;;4.30;1.00;;;;;;;;;;5028190;28;20435;-81
2023/11/14 14:34:55;;;;;;;3.63;1.30;;;;;;;;;;5041669;28;20394;-82
2023/11/14 14:37:21;;;;;;;1.75;0.95;;;;;;;;;;5040629;28;20394;-81
2023/11/14 14:39:47;;;;;;;2.95;0.88;;;;;;;;;;5041597;28;20840;-82
2023/11/14 14:42:13;;;;;;;1.10;0.60;;;;;;;;;;5042026;28;20399;-81
2023/11/14 14:44:43;;;;;;;1.52;0.77;;;;;;;;;;5042463;28;20387;-81